Forside
METAR-TAF:

METAR-TAF

Lufthavne :

Schoolcraft County Airport

Manistique, Michigan, USA

Breddekreds: 45-58-29N, længdekreds: 086-10-19W, højde: 209 m

Aktuelle vejr

Denne rapport blev lavet for 19 minutter siden, kl. 17:35 UTC
Vind 14 kt fra sydøst med vindstød på up til 21 kt
Temperatur -4°C
Fugtighed 68%
Tryk 1021 hPa
Sigt: 16.1 km
Spredte skyer i en højde af 2100 ft

METAR: KISQ 171735Z AUTO 13014G21KT 10SM SCT021 M04/M09 A3016 RMK AO2 T10391086

Tid: 12:54 (17:54 UTC)


TAF: fraværende

Vejrobservationer og prognoser fra mere end 4000 lufthavne (METAR og TAF).

De gule og røde prikker repræsenterer de meteorologiske stationer.

Flyt musen over at se navnet på stationen.

Så klik over at se vejr observationer og prognoser.

At skifte det kort: Klik på de grønne knapper med et sort kors for at zoome ind; på den grønne knap med en bindestreg for at zoome ud; eller på de grønne pile for tilstødende kort.


METAR-TAF: